Time;durP1;ratioP1;P1;durP2;ratioP2;P2;SDS_P1;SDS_P2;PMS_P1;PMS_P2;Temp;Humidity;BMP_temperature;BMP_pressure;BME280_temperature;BME280_humidity;BME280_pressure;Samples;Min_cycle;Max_cycle;Signal;HPM_P1;HPM_P2
2022/01/15 00:01:41;;;;;;;215.73;38.08;;;;;;;;;;5132455;27;20088;-73
2022/01/15 00:04:07;;;;;;;137.75;34.13;;;;;;;;;;5132454;27;20184;-73
2022/01/15 00:06:33;;;;;;;158.48;34.55;;;;;;;;;;5132558;27;20055;-73
2022/01/15 00:08:59;;;;;;;190.25;37.20;;;;;;;;;;5132472;27;20106;-73
2022/01/15 00:11:26;;;;;;;148.65;33.28;;;;;;;;;;5132426;28;20043;-73
2022/01/15 00:13:58;;;;;;;177.70;32.42;;;;;;;;;;5132328;28;20015;-72
2022/01/15 00:16:33;;;;;;;198.30;35.60;;;;;;;;;;5132476;28;20399;-73
2022/01/15 00:19:06;;;;;;;173.18;34.80;;;;;;;;;;5113974;28;20042;-73
2022/01/15 00:21:32;;;;;;;262.33;37.67;;;;;;;;;;5132400;28;20019;-72
2022/01/15 00:23:58;;;;;;;174.65;33.25;;;;;;;;;;5132325;28;20031;-73
2022/01/15 00:26:24;;;;;;;165.50;31.45;;;;;;;;;;5132081;28;20038;-73
2022/01/15 00:28:50;;;;;;;145.88;31.23;;;;;;;;;;5131801;28;20546;-73
2022/01/15 00:31:16;;;;;;;169.00;32.03;;;;;;;;;;5132184;28;20058;-72
2022/01/15 00:33:42;;;;;;;160.20;32.55;;;;;;;;;;5132330;28;20035;-73
2022/01/15 00:36:08;;;;;;;151.18;30.08;;;;;;;;;;5132298;28;20023;-73
2022/01/15 00:38:34;;;;;;;147.70;29.20;;;;;;;;;;5113454;28;20020;-72
2022/01/15 00:41:00;;;;;;;108.32;27.35;;;;;;;;;;5113636;28;20031;-73
2022/01/15 00:43:26;;;;;;;167.13;29.55;;;;;;;;;;5132014;28;20432;-73
2022/01/15 00:45:52;;;;;;;151.60;29.48;;;;;;;;;;5132304;28;20019;-73
2022/01/15 00:48:18;;;;;;;152.15;28.42;;;;;;;;;;5132209;28;20023;-73
2022/01/15 00:50:44;;;;;;;119.10;26.58;;;;;;;;;;5132098;28;20023;-73
2022/01/15 00:53:10;;;;;;;123.13;26.10;;;;;;;;;;5131999;28;20488;-73
2022/01/15 00:55:36;;;;;;;124.78;27.10;;;;;;;;;;5132116;28;20027;-73
2022/01/15 00:58:02;;;;;;;126.13;25.88;;;;;;;;;;5131735;28;20035;-73
2022/01/15 01:00:28;;;;;;;126.07;24.70;;;;;;;;;;5135666;27;20027;-73
2022/01/15 01:02:54;;;;;;;178.02;28.70;;;;;;;;;;5134111;27;20129;-72
2022/01/15 01:05:21;;;;;;;128.98;26.38;;;;;;;;;;5152590;27;20035;-73
2022/01/15 01:07:48;;;;;;;126.38;25.92;;;;;;;;;;5152729;27;20098;-72
2022/01/15 01:23:39;;;;;;;215.95;28.05;;;;;;;;;;5156420;27;20065;-73
2022/01/15 01:26:10;;;;;;;154.10;25.70;;;;;;;;;;5137509;27;20664;-73
2022/01/15 01:28:42;;;;;;;118.95;22.67;;;;;;;;;;5156090;27;20031;-73
2022/01/15 01:31:20;;;;;;;96.82;21.63;;;;;;;;;;5138895;27;20019;-73
2022/01/15 01:33:50;;;;;;;78.90;18.38;;;;;;;;;;5135417;27;20019;-73
2022/01/15 01:36:42;;;;;;;105.78;20.63;;;;;;;;;;5135290;27;20325;-72
2022/01/15 01:39:14;;;;;;;81.00;18.75;;;;;;;;;;5135152;27;20376;-73
2022/01/15 01:41:47;;;;;;;79.85;18.77;;;;;;;;;;5135060;27;20054;-73
2022/01/15 01:44:18;;;;;;;86.38;18.92;;;;;;;;;;5135172;27;20019;-73
2022/01/15 01:46:52;;;;;;;108.95;20.67;;;;;;;;;;5135215;27;20386;-73
2022/01/15 01:49:19;;;;;;;101.65;19.55;;;;;;;;;;5134949;27;20121;-73
2022/01/15 01:51:45;;;;;;;127.00;20.80;;;;;;;;;;5134952;27;20024;-72
2022/01/15 01:54:12;;;;;;;86.90;18.48;;;;;;;;;;5134810;27;20084;-73
2022/01/15 01:56:41;;;;;;;84.43;17.60;;;;;;;;;;5134762;27;20102;-73
2022/01/15 01:59:08;;;;;;;96.63;19.05;;;;;;;;;;5116029;27;20027;-73
2022/01/15 02:01:34;;;;;;;76.80;17.17;;;;;;;;;;5134617;27;20027;-73
2022/01/15 02:04:00;;;;;;;83.60;17.42;;;;;;;;;;5134794;27;20051;-73
2022/01/15 02:06:26;;;;;;;92.00;18.70;;;;;;;;;;5134715;27;20031;-73
2022/01/15 02:08:54;;;;;;;84.28;17.98;;;;;;;;;;5134113;27;20039;-72
2022/01/15 02:11:20;;;;;;;83.68;17.17;;;;;;;;;;5134349;27;20071;-73
2022/01/15 02:13:47;;;;;;;106.43;19.23;;;;;;;;;;5115931;27;20023;-73
2022/01/15 02:16:14;;;;;;;84.93;18.95;;;;;;;;;;5134553;27;20026;-72
2022/01/15 02:18:40;;;;;;;108.57;19.85;;;;;;;;;;5134413;27;20052;-72
2022/01/15 02:23:41;;;;;;;92.10;19.98;;;;;;;;;;5134214;27;20027;-73
2022/01/15 02:26:09;;;;;;;118.32;21.27;;;;;;;;;;5134355;27;20019;-73
2022/01/15 02:28:39;;;;;;;144.15;23.55;;;;;;;;;;5134114;27;20066;-73
2022/01/15 02:31:09;;;;;;;98.18;19.80;;;;;;;;;;5133956;27;20027;-72
2022/01/15 02:33:35;;;;;;;137.88;23.60;;;;;;;;;;5115637;27;20027;-73
2022/01/15 02:36:02;;;;;;;126.05;22.15;;;;;;;;;;5134069;27;20015;-73
2022/01/15 02:38:28;;;;;;;131.55;24.05;;;;;;;;;;5133825;27;20027;-73
2022/01/15 02:40:54;;;;;;;123.82;23.65;;;;;;;;;;5134131;27;20031;-74
2022/01/15 02:43:27;;;;;;;147.73;24.75;;;;;;;;;;5134063;27;20038;-74
2022/01/15 02:45:55;;;;;;;123.80;23.50;;;;;;;;;;5134278;27;20042;-74
2022/01/15 02:48:22;;;;;;;145.68;22.58;;;;;;;;;;5133949;27;20030;-74
2022/01/15 02:50:48;;;;;;;151.63;24.17;;;;;;;;;;5133967;27;20027;-74
2022/01/15 02:53:18;;;;;;;120.68;23.65;;;;;;;;;;5133894;27;20098;-74
2022/01/15 02:55:45;;;;;;;114.50;21.58;;;;;;;;;;5133947;27;20118;-74
2022/01/15 02:58:11;;;;;;;151.18;24.30;;;;;;;;;;5133570;27;20036;-74
2022/01/15 03:00:37;;;;;;;216.25;26.80;;;;;;;;;;5133740;27;20113;-74
2022/01/15 03:03:03;;;;;;;177.25;26.45;;;;;;;;;;5133766;27;20027;-74
2022/01/15 03:05:29;;;;;;;125.97;23.65;;;;;;;;;;5133837;27;20043;-74
2022/01/15 03:07:55;;;;;;;233.13;26.73;;;;;;;;;;5133705;27;20495;-74
2022/01/15 03:10:21;;;;;;;136.95;22.25;;;;;;;;;;5133519;27;20039;-74
2022/01/15 03:12:47;;;;;;;139.85;23.00;;;;;;;;;;5133549;27;20528;-74
2022/01/15 03:15:19;;;;;;;159.25;22.98;;;;;;;;;;5133579;27;20027;-74
2022/01/15 03:17:45;;;;;;;177.75;24.00;;;;;;;;;;5133397;27;20028;-74
2022/01/15 03:20:13;;;;;;;135.73;20.10;;;;;;;;;;5133416;27;20024;-74
2022/01/15 03:22:39;;;;;;;96.32;19.50;;;;;;;;;;5133381;27;20027;-74
2022/01/15 03:25:05;;;;;;;98.78;19.33;;;;;;;;;;5133405;27;20054;-74
2022/01/15 03:27:31;;;;;;;120.10;19.88;;;;;;;;;;5114156;27;20046;-74
2022/01/15 03:29:57;;;;;;;143.02;19.77;;;;;;;;;;5125719;27;20023;-74
2022/01/15 03:32:23;;;;;;;114.78;19.35;;;;;;;;;;5127436;27;20490;-74
2022/01/15 03:34:49;;;;;;;93.75;16.77;;;;;;;;;;5133254;27;20106;-74
2022/01/15 03:37:16;;;;;;;108.70;18.80;;;;;;;;;;5133107;27;20465;-74
2022/01/15 03:39:42;;;;;;;103.55;18.20;;;;;;;;;;5132651;27;20027;-74
2022/01/15 03:42:11;;;;;;;83.20;16.23;;;;;;;;;;5133011;27;20115;-74
2022/01/15 03:44:41;;;;;;;93.00;16.00;;;;;;;;;;5113934;27;20023;-74
2022/01/15 03:47:07;;;;;;;75.85;16.90;;;;;;;;;;5133174;27;20123;-74
2022/01/15 03:49:33;;;;;;;92.32;16.63;;;;;;;;;;5132873;27;20046;-74
2022/01/15 03:51:59;;;;;;;79.68;16.15;;;;;;;;;;5132894;27;20027;-74
2022/01/15 03:54:25;;;;;;;79.30;15.27;;;;;;;;;;5132597;27;20357;-74
2022/01/15 03:56:51;;;;;;;74.35;15.38;;;;;;;;;;5114228;27;20027;-74
2022/01/15 03:59:17;;;;;;;70.47;14.40;;;;;;;;;;5132569;27;20065;-74
2022/01/15 04:01:43;;;;;;;73.75;14.68;;;;;;;;;;5132806;27;20031;-74
2022/01/15 04:04:09;;;;;;;80.80;15.13;;;;;;;;;;5114239;27;20434;-74
2022/01/15 04:06:35;;;;;;;64.75;14.52;;;;;;;;;;5132793;27;20144;-74
2022/01/15 04:09:01;;;;;;;82.00;15.93;;;;;;;;;;5132626;27;20031;-74
2022/01/15 04:11:28;;;;;;;73.35;15.15;;;;;;;;;;5132456;27;20051;-74
2022/01/15 04:13:54;;;;;;;79.28;17.05;;;;;;;;;;5132553;28;20026;-74
2022/01/15 04:16:20;;;;;;;71.85;15.15;;;;;;;;;;5132691;28;20084;-74
2022/01/15 04:18:46;;;;;;;66.57;14.25;;;;;;;;;;5132583;28;20019;-74
2022/01/15 04:21:14;;;;;;;65.10;14.63;;;;;;;;;;5132616;28;20427;-74
2022/01/15 04:23:40;;;;;;;62.92;14.38;;;;;;;;;;5132604;28;20043;-74
2022/01/15 04:26:06;;;;;;;55.97;14.10;;;;;;;;;;5132548;28;20396;-74
2022/01/15 04:28:33;;;;;;;58.17;16.20;;;;;;;;;;5113921;28;20023;-74
2022/01/15 04:31:07;;;;;;;62.17;16.98;;;;;;;;;;5132420;28;20447;-74
2022/01/15 04:33:34;;;;;;;72.32;16.55;;;;;;;;;;5132604;28;20376;-74
2022/01/15 04:36:00;;;;;;;65.45;15.98;;;;;;;;;;5132549;28;20031;-74
2022/01/15 04:38:26;;;;;;;69.47;16.35;;;;;;;;;;5132187;28;20484;-74
2022/01/15 04:40:52;;;;;;;105.65;18.35;;;;;;;;;;5132463;28;20019;-74
2022/01/15 04:43:18;;;;;;;111.05;19.67;;;;;;;;;;5132285;28;20380;-74
2022/01/15 04:45:44;;;;;;;76.30;17.95;;;;;;;;;;5132604;28;20107;-74
2022/01/15 04:48:10;;;;;;;96.30;19.42;;;;;;;;;;5113608;28;20030;-74
2022/01/15 04:50:36;;;;;;;100.88;19.75;;;;;;;;;;5132253;27;20027;-74
2022/01/15 04:53:04;;;;;;;69.50;16.98;;;;;;;;;;5135617;27;20102;-74
2022/01/15 04:55:30;;;;;;;71.85;19.10;;;;;;;;;;5117693;27;20746;-74
2022/01/15 04:57:55;;;;;;;84.88;20.00;;;;;;;;;;5136036;27;20034;-74
2022/01/15 05:00:21;;;;;;;77.13;19.45;;;;;;;;;;5136092;27;20030;-74
2022/01/15 05:02:47;;;;;;;81.57;19.85;;;;;;;;;;5136125;27;20473;-74
2022/01/15 05:05:13;;;;;;;76.70;20.25;;;;;;;;;;5136146;27;20098;-74
2022/01/15 05:07:40;;;;;;;84.47;23.15;;;;;;;;;;5136041;27;20388;-74
2022/01/15 05:10:07;;;;;;;76.57;20.88;;;;;;;;;;5135945;27;20051;-74
2022/01/15 05:12:41;;;;;;;82.97;21.20;;;;;;;;;;5135841;27;20437;-74
2022/01/15 05:15:07;;;;;;;92.05;22.77;;;;;;;;;;5135770;27;20030;-74
2022/01/15 05:17:33;;;;;;;141.57;25.73;;;;;;;;;;5136010;27;20019;-74
2022/01/15 05:19:59;;;;;;;93.95;24.90;;;;;;;;;;5135754;27;20031;-74
2022/01/15 05:22:25;;;;;;;130.15;26.65;;;;;;;;;;5135732;27;20058;-74
2022/01/15 05:24:51;;;;;;;181.65;30.48;;;;;;;;;;5135709;27;20031;-74
2022/01/15 05:27:17;;;;;;;142.45;27.85;;;;;;;;;;5135639;27;20027;-74
2022/01/15 05:29:45;;;;;;;96.57;25.35;;;;;;;;;;5135401;27;20043;-74
2022/01/15 05:32:11;;;;;;;126.90;26.48;;;;;;;;;;5135456;27;20011;-74
2022/01/15 05:34:37;;;;;;;128.05;27.90;;;;;;;;;;5135562;27;20107;-74
2022/01/15 05:37:03;;;;;;;129.05;26.38;;;;;;;;;;5135504;27;20106;-74
2022/01/15 05:39:29;;;;;;;125.82;25.98;;;;;;;;;;5135287;27;20099;-74
2022/01/15 05:41:56;;;;;;;104.50;24.90;;;;;;;;;;5135302;27;20035;-74
2022/01/15 05:44:22;;;;;;;123.18;25.92;;;;;;;;;;5135385;27;20491;-74
2022/01/15 05:46:48;;;;;;;102.50;24.92;;;;;;;;;;5135397;27;20031;-74
2022/01/15 05:49:14;;;;;;;132.82;25.58;;;;;;;;;;5135102;27;20051;-74
2022/01/15 05:51:40;;;;;;;101.97;24.42;;;;;;;;;;5135290;27;20098;-74
2022/01/15 05:54:10;;;;;;;180.75;27.90;;;;;;;;;;5135252;27;20019;-74
2022/01/15 05:56:36;;;;;;;158.40;27.05;;;;;;;;;;5135095;27;20019;-74
2022/01/15 05:59:02;;;;;;;167.07;27.70;;;;;;;;;;5134805;27;20107;-74
2022/01/15 06:01:28;;;;;;;118.18;24.20;;;;;;;;;;5134942;27;20447;-74
2022/01/15 06:03:54;;;;;;;104.32;24.70;;;;;;;;;;5134669;27;20102;-74
2022/01/15 06:06:20;;;;;;;114.70;26.08;;;;;;;;;;5135039;27;20023;-74
2022/01/15 06:08:47;;;;;;;151.95;25.35;;;;;;;;;;5134866;27;20063;-74
2022/01/15 06:11:17;;;;;;;121.57;25.85;;;;;;;;;;5134583;27;20043;-74
2022/01/15 06:13:43;;;;;;;109.13;24.92;;;;;;;;;;5134695;27;20019;-74
2022/01/15 06:16:09;;;;;;;166.10;26.33;;;;;;;;;;5134835;27;20465;-74
2022/01/15 06:18:35;;;;;;;131.05;24.08;;;;;;;;;;5134614;27;20026;-74
2022/01/15 06:21:01;;;;;;;214.05;28.10;;;;;;;;;;5134680;27;20381;-74
2022/01/15 06:23:27;;;;;;;244.48;30.30;;;;;;;;;;5134571;27;20041;-74
2022/01/15 06:25:53;;;;;;;181.93;27.90;;;;;;;;;;5134547;27;20035;-74
2022/01/15 06:28:19;;;;;;;146.80;26.15;;;;;;;;;;5134383;27;20027;-74
2022/01/15 06:30:45;;;;;;;282.30;33.65;;;;;;;;;;5121425;27;20038;-74
2022/01/15 06:33:11;;;;;;;175.20;28.45;;;;;;;;;;5134308;27;20023;-74
2022/01/15 06:35:37;;;;;;;210.10;29.67;;;;;;;;;;5134490;27;20054;-74
2022/01/15 06:38:03;;;;;;;145.60;26.77;;;;;;;;;;5134254;27;20062;-74
2022/01/15 06:40:31;;;;;;;210.90;28.77;;;;;;;;;;5134143;27;20035;-74
2022/01/15 06:42:57;;;;;;;204.00;28.45;;;;;;;;;;5134212;27;20015;-74
2022/01/15 06:45:23;;;;;;;182.35;26.55;;;;;;;;;;5134003;27;20034;-74
2022/01/15 06:47:49;;;;;;;167.82;25.95;;;;;;;;;;5133630;27;20035;-74
2022/01/15 06:50:15;;;;;;;212.95;27.63;;;;;;;;;;5133429;27;20028;-74
2022/01/15 06:52:41;;;;;;;233.48;27.33;;;;;;;;;;5133655;27;20051;-74
2022/01/15 06:55:08;;;;;;;132.40;23.55;;;;;;;;;;5133527;27;20069;-74
2022/01/15 06:57:34;;;;;;;257.83;29.38;;;;;;;;;;5133335;27;20058;-74
2022/01/15 07:00:02;;;;;;;160.75;25.38;;;;;;;;;;5133310;27;20035;-74
2022/01/15 07:02:28;;;;;;;195.13;26.17;;;;;;;;;;5133467;27;20102;-74
2022/01/15 07:04:54;;;;;;;158.68;25.27;;;;;;;;;;5133479;27;20482;-74
2022/01/15 07:07:20;;;;;;;244.73;25.80;;;;;;;;;;5133318;27;20027;-74
2022/01/15 07:09:46;;;;;;;230.52;25.58;;;;;;;;;;5132978;27;20535;-74
2022/01/15 07:12:12;;;;;;;240.70;26.88;;;;;;;;;;5133069;27;20043;-74
2022/01/15 07:14:38;;;;;;;280.73;27.95;;;;;;;;;;5132512;27;20491;-74
2022/01/15 07:17:04;;;;;;;213.45;26.00;;;;;;;;;;5133287;27;20031;-74
2022/01/15 07:19:31;;;;;;;232.80;26.92;;;;;;;;;;5114554;27;20080;-74
2022/01/15 07:21:57;;;;;;;217.30;26.52;;;;;;;;;;5132999;27;20023;-74
2022/01/15 07:24:23;;;;;;;170.00;24.30;;;;;;;;;;5132882;27;20019;-74
2022/01/15 07:26:49;;;;;;;413.38;32.33;;;;;;;;;;5133326;27;20019;-74
2022/01/15 07:29:16;;;;;;;187.63;23.73;;;;;;;;;;5132912;27;20107;-74
2022/01/15 07:31:45;;;;;;;232.02;26.20;;;;;;;;;;5133247;27;20414;-74
2022/01/15 07:34:11;;;;;;;274.40;29.30;;;;;;;;;;5133159;27;20102;-74
2022/01/15 07:36:38;;;;;;;163.13;24.92;;;;;;;;;;5133233;27;20091;-74
2022/01/15 07:39:04;;;;;;;206.02;24.35;;;;;;;;;;5132935;27;20023;-74
2022/01/15 07:41:30;;;;;;;299.60;27.55;;;;;;;;;;5132818;27;20055;-74
2022/01/15 07:43:56;;;;;;;225.80;26.65;;;;;;;;;;5132915;27;20076;-74
2022/01/15 07:46:22;;;;;;;138.45;23.38;;;;;;;;;;5132994;27;20377;-74
2022/01/15 07:48:48;;;;;;;180.55;24.35;;;;;;;;;;5132868;27;20027;-74
2022/01/15 07:51:14;;;;;;;258.42;28.20;;;;;;;;;;5132894;27;20026;-74
2022/01/15 07:53:40;;;;;;;228.82;28.25;;;;;;;;;;5114329;27;20109;-74
2022/01/15 07:56:06;;;;;;;230.85;27.88;;;;;;;;;;5132813;27;20028;-74
2022/01/15 07:58:32;;;;;;;278.88;26.77;;;;;;;;;;5132450;27;20333;-74
2022/01/15 08:00:58;;;;;;;188.57;26.38;;;;;;;;;;5132733;27;20028;-74
2022/01/15 08:03:24;;;;;;;250.20;30.15;;;;;;;;;;5132810;27;20046;-74
2022/01/15 08:05:50;;;;;;;350.83;32.13;;;;;;;;;;5132660;27;20062;-74
2022/01/15 08:08:16;;;;;;;260.17;29.95;;;;;;;;;;5132554;27;20079;-74
2022/01/15 08:10:44;;;;;;;263.60;30.83;;;;;;;;;;5132280;27;20415;-74
2022/01/15 08:13:10;;;;;;;278.40;31.98;;;;;;;;;;5132540;28;20023;-74
2022/01/15 08:15:36;;;;;;;322.63;30.88;;;;;;;;;;5132763;28;20098;-74
2022/01/15 08:18:02;;;;;;;284.35;28.08;;;;;;;;;;5131439;28;20023;-74
2022/01/15 08:20:28;;;;;;;339.55;31.40;;;;;;;;;;5131768;27;20023;-74
2022/01/15 08:22:54;;;;;;;380.52;35.33;;;;;;;;;;5113295;28;20038;-74
2022/01/15 08:25:22;;;;;;;230.57;30.55;;;;;;;;;;5129828;27;20423;-74
2022/01/15 08:27:48;;;;;;;373.17;33.40;;;;;;;;;;5136019;27;20011;-74
2022/01/15 08:30:15;;;;;;;302.55;33.38;;;;;;;;;;5135355;27;20115;-74
2022/01/15 08:32:42;;;;;;;327.20;33.13;;;;;;;;;;5115308;27;20127;-74
2022/01/15 08:35:08;;;;;;;458.33;40.85;;;;;;;;;;5136136;27;20086;-74
2022/01/15 08:37:37;;;;;;;305.05;32.50;;;;;;;;;;5117170;27;20342;-74
2022/01/15 08:40:04;;;;;;;255.50;32.28;;;;;;;;;;5135569;27;20422;-73
2022/01/15 08:42:31;;;;;;;526.55;44.72;;;;;;;;;;5135455;27;20042;-74
2022/01/15 08:44:57;;;;;;;277.52;33.92;;;;;;;;;;5135442;27;20027;-74
2022/01/15 08:47:22;;;;;;;265.75;34.17;;;;;;;;;;5135810;27;20094;-74
2022/01/15 08:49:49;;;;;;;484.85;42.22;;;;;;;;;;5135520;27;20111;-74
2022/01/15 08:52:15;;;;;;;294.52;34.55;;;;;;;;;;5135553;27;20030;-74
2022/01/15 08:54:41;;;;;;;418.92;39.30;;;;;;;;;;5135290;27;20054;-74
2022/01/15 08:57:07;;;;;;;400.88;39.38;;;;;;;;;;5134998;27;20023;-74
2022/01/15 08:59:33;;;;;;;441.42;41.72;;;;;;;;;;5135246;27;20030;-74
2022/01/15 09:01:59;;;;;;;283.02;36.75;;;;;;;;;;5135407;27;20027;-74
2022/01/15 09:04:25;;;;;;;443.95;40.10;;;;;;;;;;5135778;27;20031;-74
2022/01/15 09:06:51;;;;;;;402.15;39.38;;;;;;;;;;5135645;27;20465;-74
2022/01/15 09:09:18;;;;;;;399.80;39.63;;;;;;;;;;5135668;27;20054;-74
2022/01/15 09:11:44;;;;;;;337.85;36.38;;;;;;;;;;5135321;27;20082;-74
2022/01/15 09:14:11;;;;;;;523.15;42.58;;;;;;;;;;5135483;27;20042;-74
2022/01/15 09:16:37;;;;;;;544.25;44.20;;;;;;;;;;5117028;27;20106;-74
2022/01/15 09:19:03;;;;;;;328.75;36.78;;;;;;;;;;5135229;27;20015;-74
2022/01/15 09:21:29;;;;;;;558.05;46.90;;;;;;;;;;5135422;27;20030;-74
2022/01/15 09:23:55;;;;;;;303.70;38.85;;;;;;;;;;5135247;27;20026;-74
2022/01/15 09:26:34;;;;;;;432.90;42.30;;;;;;;;;;5135311;27;20015;-74
2022/01/15 09:31:45;;;;;;;385.15;37.53;;;;;;;;;;5135511;27;20057;-77
2022/01/15 09:34:11;;;;;;;516.28;46.08;;;;;;;;;;5136031;27;20019;-75
2022/01/15 09:36:37;;;;;;;341.83;38.58;;;;;;;;;;5136345;27;20019;-76
2022/01/15 09:39:03;;;;;;;266.40;35.13;;;;;;;;;;5135602;27;20359;-74
2022/01/15 09:41:29;;;;;;;464.58;42.50;;;;;;;;;;5118026;27;20027;-74
2022/01/15 09:43:56;;;;;;;289.58;34.95;;;;;;;;;;5117598;27;20051;-74
2022/01/15 09:46:22;;;;;;;292.48;36.95;;;;;;;;;;5117562;27;20050;-75
2022/01/15 09:48:49;;;;;;;298.67;35.70;;;;;;;;;;5136033;27;20367;-75
2022/01/15 09:51:15;;;;;;;396.80;37.83;;;;;;;;;;5136099;27;20022;-74
2022/01/15 09:53:41;;;;;;;320.08;34.20;;;;;;;;;;5135912;27;20019;-74
2022/01/15 09:56:07;;;;;;;295.23;33.88;;;;;;;;;;5136017;27;20477;-75
2022/01/15 09:58:33;;;;;;;287.42;35.75;;;;;;;;;;5132658;27;20051;-74
2022/01/15 10:01:01;;;;;;;303.95;34.38;;;;;;;;;;5135960;27;20023;-74
2022/01/15 10:03:27;;;;;;;473.10;42.28;;;;;;;;;;5135899;27;20793;-75
2022/01/15 10:05:53;;;;;;;544.40;45.40;;;;;;;;;;5135324;27;20055;-75
2022/01/15 10:08:20;;;;;;;504.10;46.42;;;;;;;;;;5135846;27;20052;-75
2022/01/15 10:10:50;;;;;;;583.80;47.80;;;;;;;;;;5135606;27;20549;-75
2022/01/15 10:13:16;;;;;;;306.70;33.60;;;;;;;;;;5134947;27;20042;-75
2022/01/15 10:15:43;;;;;;;286.83;33.00;;;;;;;;;;5135176;27;20449;-76
2022/01/15 10:18:28;;;;;;;235.38;31.38;;;;;;;;;;5134537;27;20060;-77
2022/01/15 10:20:55;;;;;;;222.85;31.38;;;;;;;;;;5116485;27;20023;-79
2022/01/15 10:23:22;;;;;;;366.48;38.60;;;;;;;;;;5134539;27;20021;-77
2022/01/15 10:26:07;;;;;;;270.42;34.30;;;;;;;;;;5134685;27;20060;-77
2022/01/15 10:28:53;;;;;;;221.07;31.17;;;;;;;;;;5115888;27;20031;-77
2022/01/15 10:31:20;;;;;;;311.23;34.08;;;;;;;;;;5134379;27;20023;-78
2022/01/15 10:33:46;;;;;;;371.15;39.63;;;;;;;;;;5134329;27;20051;-77
2022/01/15 10:36:26;;;;;;;219.43;31.63;;;;;;;;;;5115918;27;20020;-78
2022/01/15 10:38:52;;;;;;;351.15;38.17;;;;;;;;;;5115607;27;20023;-75
2022/01/15 10:41:31;;;;;;;250.45;31.70;;;;;;;;;;5134263;27;20034;-77
2022/01/15 10:43:57;;;;;;;237.68;31.45;;;;;;;;;;5133775;27;20060;-75
2022/01/15 10:46:37;;;;;;;282.35;33.03;;;;;;;;;;5134054;27;20019;-74
2022/01/15 10:49:22;;;;;;;274.23;33.22;;;;;;;;;;5132909;27;20042;-78
2022/01/15 10:52:04;;;;;;;223.00;31.52;;;;;;;;;;5134002;27;20443;-77
2022/01/15 10:54:30;;;;;;;207.65;31.90;;;;;;;;;;5134148;27;20035;-80
2022/01/15 10:57:06;;;;;;;397.40;40.92;;;;;;;;;;5134273;27;20106;-75
2022/01/15 10:59:32;;;;;;;268.60;33.08;;;;;;;;;;5115173;27;20138;-76
2022/01/15 11:02:16;;;;;;;343.48;38.67;;;;;;;;;;5133841;27;20171;-78
2022/01/15 11:04:42;;;;;;;306.35;34.22;;;;;;;;;;5133711;27;20486;-80
2022/01/15 11:07:15;;;;;;;158.75;31.55;;;;;;;;;;5133705;27;20038;-75
2022/01/15 11:09:46;;;;;;;231.40;31.80;;;;;;;;;;5133543;27;20042;-75
2022/01/15 11:12:12;;;;;;;189.18;30.80;;;;;;;;;;5133281;27;20122;-75
2022/01/15 11:14:39;;;;;;;164.05;32.10;;;;;;;;;;5133939;27;20050;-79
2022/01/15 11:17:05;;;;;;;204.57;36.40;;;;;;;;;;5134096;27;20026;-81
2022/01/15 11:19:32;;;;;;;196.70;33.45;;;;;;;;;;5134561;27;20046;-81
2022/01/15 11:21:58;;;;;;;267.98;40.55;;;;;;;;;;5134320;27;20023;-81
2022/01/15 11:24:25;;;;;;;172.15;33.35;;;;;;;;;;5133990;27;20354;-81
2022/01/15 11:26:55;;;;;;;218.27;35.80;;;;;;;;;;5134246;27;20472;-81
2022/01/15 11:29:21;;;;;;;202.77;33.90;;;;;;;;;;5125228;27;20023;-81
2022/01/15 11:31:47;;;;;;;175.05;35.15;;;;;;;;;;5133847;27;20582;-81
2022/01/15 11:34:14;;;;;;;193.00;38.33;;;;;;;;;;5134345;27;20098;-81
2022/01/15 11:36:43;;;;;;;237.40;37.95;;;;;;;;;;5134395;27;20106;-81
2022/01/15 11:39:10;;;;;;;179.60;35.00;;;;;;;;;;5133983;27;20023;-81
2022/01/15 11:41:37;;;;;;;248.02;39.30;;;;;;;;;;5133729;27;20472;-81
2022/01/15 11:44:04;;;;;;;226.07;34.20;;;;;;;;;;5113241;27;20319;-80
2022/01/15 11:46:32;;;;;;;186.88;32.03;;;;;;;;;;5133997;27;20026;-80
2022/01/15 11:49:17;;;;;;;234.82;32.05;;;;;;;;;;5133578;27;20012;-80
2022/01/15 11:51:43;;;;;;;303.25;34.53;;;;;;;;;;5114706;27;20110;-81
2022/01/15 11:54:12;;;;;;;165.70;27.55;;;;;;;;;;5133159;27;20440;-78
2022/01/15 11:56:39;;;;;;;128.13;26.70;;;;;;;;;;5133618;27;20034;-80
2022/01/15 11:59:23;;;;;;;159.35;26.02;;;;;;;;;;5133442;27;20023;-78
2022/01/15 12:01:50;;;;;;;110.45;25.95;;;;;;;;;;5133247;27;20034;-77
2022/01/15 12:04:25;;;;;;;91.47;23.27;;;;;;;;;;5132910;27;20030;-75
2022/01/15 12:07:01;;;;;;;118.38;23.55;;;;;;;;;;5132575;27;20031;-77
2022/01/15 12:09:36;;;;;;;87.43;24.13;;;;;;;;;;5114527;27;20027;-77
2022/01/15 12:12:30;;;;;;;108.70;24.13;;;;;;;;;;5132315;27;20079;-77
2022/01/15 12:15:00;;;;;;;104.80;22.42;;;;;;;;;;5132936;28;20038;-74
2022/01/15 12:17:38;;;;;;;200.38;29.25;;;;;;;;;;5133527;28;20039;-80
2022/01/15 12:20:06;;;;;;;121.65;25.08;;;;;;;;;;5115214;28;20110;-80
2022/01/15 12:22:35;;;;;;;108.10;25.48;;;;;;;;;;5133320;28;20023;-80
2022/01/15 12:25:05;;;;;;;105.72;24.15;;;;;;;;;;5133121;28;20034;-80
2022/01/15 12:27:32;;;;;;;138.98;25.98;;;;;;;;;;5132660;28;20146;-80
2022/01/15 12:30:07;;;;;;;137.75;25.77;;;;;;;;;;5132448;27;20023;-80
2022/01/15 12:32:36;;;;;;;129.50;26.80;;;;;;;;;;5132718;28;20024;-80
2022/01/15 12:35:03;;;;;;;105.07;24.90;;;;;;;;;;5132935;27;20457;-80
2022/01/15 12:37:29;;;;;;;92.78;23.88;;;;;;;;;;5133362;28;20028;-80
2022/01/15 12:39:55;;;;;;;118.47;25.25;;;;;;;;;;5133521;28;20539;-80
2022/01/15 12:42:28;;;;;;;120.53;25.17;;;;;;;;;;5133205;28;20054;-80
2022/01/15 12:44:54;;;;;;;135.68;24.90;;;;;;;;;;5133166;28;20019;-80
2022/01/15 12:47:21;;;;;;;174.02;27.40;;;;;;;;;;5133315;28;20376;-81
2022/01/15 12:49:49;;;;;;;160.57;30.40;;;;;;;;;;5133469;28;20095;-80
2022/01/15 12:52:15;;;;;;;93.90;25.88;;;;;;;;;;5133288;28;20023;-80
2022/01/15 12:54:41;;;;;;;166.27;29.55;;;;;;;;;;5133312;28;20031;-79
2022/01/15 12:57:07;;;;;;;93.47;24.77;;;;;;;;;;5112741;28;20053;-78
2022/01/15 12:59:33;;;;;;;224.88;30.23;;;;;;;;;;5112760;28;20035;-80
2022/01/15 13:02:01;;;;;;;156.73;29.10;;;;;;;;;;5111170;28;20419;-80
2022/01/15 13:04:27;;;;;;;115.78;25.17;;;;;;;;;;5112646;28;20028;-80
2022/01/15 13:07:02;;;;;;;131.32;29.15;;;;;;;;;;5112464;28;20034;-80
2022/01/15 13:09:38;;;;;;;138.10;27.33;;;;;;;;;;5111181;28;20050;-78
2022/01/15 13:12:07;;;;;;;124.57;27.80;;;;;;;;;;5111320;28;20559;-80
2022/01/15 13:14:40;;;;;;;148.60;29.35;;;;;;;;;;5116628;28;20039;-80
2022/01/15 13:17:19;;;;;;;126.55;29.42;;;;;;;;;;5116610;28;20023;-80
2022/01/15 13:19:45;;;;;;;129.00;30.45;;;;;;;;;;5116509;28;20024;-80
2022/01/15 13:22:11;;;;;;;162.77;30.08;;;;;;;;;;5116318;28;20384;-80
2022/01/15 13:24:37;;;;;;;212.80;33.75;;;;;;;;;;5116277;28;20418;-80
2022/01/15 13:27:04;;;;;;;149.35;30.23;;;;;;;;;;5115856;28;20059;-78
2022/01/15 13:29:37;;;;;;;158.63;30.70;;;;;;;;;;5118321;27;20028;-78
2022/01/15 13:32:06;;;;;;;145.55;32.05;;;;;;;;;;5136025;27;20038;-77
2022/01/15 13:34:34;;;;;;;127.22;29.48;;;;;;;;;;5135799;27;20017;-77
2022/01/15 13:37:08;;;;;;;109.57;29.70;;;;;;;;;;5117439;27;20030;-77
2022/01/15 13:39:34;;;;;;;128.68;31.67;;;;;;;;;;5135343;27;20443;-77
2022/01/15 13:42:00;;;;;;;119.88;29.67;;;;;;;;;;5135191;27;20031;-77
2022/01/15 13:44:31;;;;;;;206.63;34.40;;;;;;;;;;5135240;27;20023;-77
2022/01/15 13:47:06;;;;;;;122.30;30.88;;;;;;;;;;5135684;27;20088;-77
2022/01/15 13:53:04;;;;;;;147.15;32.20;;;;;;;;;;5135711;27;20027;-77
2022/01/15 13:55:13;;;;;;;113.70;30.08;;;;;;;;;;5115844;28;20042;-81
2022/01/15 13:57:40;;;;;;;114.88;31.17;;;;;;;;;;5135846;27;20074;-81
2022/01/15 14:00:14;;;;;;;155.82;34.00;;;;;;;;;;5136463;27;20098;-81
2022/01/15 14:02:41;;;;;;;111.72;30.45;;;;;;;;;;5135891;27;20035;-80
2022/01/15 14:05:13;;;;;;;127.95;32.63;;;;;;;;;;5135598;27;20509;-79
2022/01/15 14:07:39;;;;;;;107.45;30.95;;;;;;;;;;5135902;27;20034;-81
2022/01/15 14:10:13;;;;;;;122.93;32.10;;;;;;;;;;5135945;27;20023;-80
2022/01/15 14:12:39;;;;;;;113.75;32.72;;;;;;;;;;5135637;27;20027;-80
2022/01/15 14:15:13;;;;;;;99.95;30.95;;;;;;;;;;5117445;27;20056;-80
2022/01/15 14:17:42;;;;;;;105.72;30.40;;;;;;;;;;5135688;27;20062;-81
2022/01/15 14:22:41;;;;;;;;;;;;;;;;;;5136433;27;20031;-78
2022/01/15 14:25:13;;;;;;;97.07;29.45;;;;;;;;;;5135431;27;19942;-80
2022/01/15 14:27:39;;;;;;;99.30;30.70;;;;;;;;;;5135296;27;20502;-81
2022/01/15 14:30:07;;;;;;;88.82;30.00;;;;;;;;;;5127525;27;20027;-79
2022/01/15 14:32:33;;;;;;;109.75;30.60;;;;;;;;;;5115139;28;20145;-81
2022/01/15 14:34:59;;;;;;;87.10;30.85;;;;;;;;;;5115125;28;20026;-81